Time;durP1;ratioP1;P1;durP2;ratioP2;P2;SDS_P1;SDS_P2;PMS_P1;PMS_P2;Temp;Humidity;BMP_temperature;BMP_pressure;BME280_temperature;BME280_humidity;BME280_pressure;Samples;Min_cycle;Max_cycle;Signal;HPM_P1;HPM_P2
2021/10/10 00:00:01;;;;;;;29.43;17.20;;;;;;;9.39;100.00;97218.94;4986922;28;20062;-45
2021/10/10 00:02:36;;;;;;;26.67;16.48;;;;;;;9.59;100.00;97220.03;4981260;28;21026;-46
2021/10/10 00:05:06;;;;;;;24.63;17.17;;;;;;;9.56;100.00;97218.47;4988063;28;20104;-44
2021/10/10 00:07:53;;;;;;;31.25;17.65;;;;;;;9.58;100.00;97219.19;4983939;28;20581;-46
2021/10/10 00:10:21;;;;;;;30.80;17.88;;;;;;;9.40;100.00;97216.22;4985875;28;20081;-44
2021/10/10 00:12:51;;;;;;;29.48;17.27;;;;;;;9.66;100.00;97219.44;4981885;28;20086;-43
2021/10/10 00:15:20;;;;;;;27.50;16.77;;;;;;;9.48;100.00;97219.06;4987079;28;20058;-44
2021/10/10 00:18:07;;;;;;;25.45;15.75;;;;;;;9.52;100.00;97211.78;4978328;28;20517;-41
2021/10/10 00:20:36;;;;;;;27.23;17.27;;;;;;;9.54;100.00;97212.50;4983112;28;20070;-46
2021/10/10 00:23:04;;;;;;;26.65;16.67;;;;;;;9.40;100.00;97210.94;4983728;28;20481;-45
2021/10/10 00:25:36;;;;;;;27.33;16.65;;;;;;;9.25;100.00;97212.09;4984741;28;20086;-46
2021/10/10 00:28:06;;;;;;;24.20;16.95;;;;;;;9.22;100.00;97214.97;4988111;28;20096;-44
2021/10/10 00:30:34;;;;;;;23.23;15.95;;;;;;;9.35;100.00;97209.63;4985123;28;20058;-43
2021/10/10 00:33:03;;;;;;;26.15;15.88;;;;;;;8.86;100.00;97216.00;4980135;28;20074;-47
2021/10/10 00:35:33;;;;;;;23.95;16.60;;;;;;;9.24;100.00;97202.56;4984243;28;20069;-45
2021/10/10 00:38:02;;;;;;;27.05;16.63;;;;;;;9.35;100.00;97199.91;4981651;28;20074;-46
2021/10/10 00:40:30;;;;;;;28.63;16.27;;;;;;;9.26;100.00;97204.13;4982529;28;20432;-47
2021/10/10 00:43:00;;;;;;;26.65;16.42;;;;;;;9.46;100.00;97209.63;4977240;28;20042;-47
2021/10/10 00:45:32;;;;;;;25.40;16.75;;;;;;;9.03;100.00;97195.34;4985428;28;20081;-45
2021/10/10 00:48:01;;;;;;;26.00;16.35;;;;;;;9.11;100.00;97204.44;4982232;28;20474;-48
2021/10/10 00:50:30;;;;;;;23.92;16.10;;;;;;;9.02;100.00;97196.31;4975716;28;20092;-47
2021/10/10 00:53:00;;;;;;;26.38;16.08;;;;;;;8.93;100.00;97199.63;4984854;28;20078;-43
2021/10/10 00:55:29;;;;;;;25.77;16.60;;;;;;;8.70;100.00;97211.88;4982992;28;20434;-44
2021/10/10 00:57:58;;;;;;;26.20;15.85;;;;;;;8.69;100.00;97206.72;4980699;28;20077;-44
2021/10/10 01:00:27;;;;;;;27.17;16.10;;;;;;;8.80;100.00;97210.22;4978618;28;20115;-44
2021/10/10 01:02:59;;;;;;;22.70;14.77;;;;;;;8.66;100.00;97206.97;4985793;28;20097;-46
2021/10/10 01:05:28;;;;;;;26.35;15.63;;;;;;;8.74;100.00;97209.84;4983996;28;20070;-44
2021/10/10 01:07:57;;;;;;;22.17;15.02;;;;;;;8.88;100.00;97208.81;4982533;28;20078;-44
2021/10/10 01:10:25;;;;;;;26.08;15.85;;;;;;;8.67;100.00;97206.84;4988553;28;20571;-41
2021/10/10 01:12:54;;;;;;;25.60;15.52;;;;;;;8.66;100.00;97206.97;4981836;28;20049;-41
2021/10/10 01:15:22;;;;;;;26.33;16.15;;;;;;;8.60;100.00;97207.41;4978417;28;20070;-48
2021/10/10 01:17:51;;;;;;;31.50;17.42;;;;;;;8.84;100.00;97210.00;4980042;28;20077;-43
2021/10/10 01:20:21;;;;;;;29.20;16.38;;;;;;;8.99;100.00;97207.06;4985353;28;20086;-45
2021/10/10 01:22:51;;;;;;;24.75;16.00;;;;;;;9.01;100.00;97205.13;4980646;28;20094;-45
2021/10/10 01:25:20;;;;;;;25.87;15.47;;;;;;;9.04;100.00;97209.31;4986449;28;20077;-47
2021/10/10 01:27:48;;;;;;;22.77;15.68;;;;;;;9.00;100.00;97200.00;4984524;28;20521;-47
2021/10/10 01:30:17;;;;;;;27.52;16.92;;;;;;;8.84;100.00;97202.09;4986217;28;20080;-45
2021/10/10 01:32:54;;;;;;;29.13;16.42;;;;;;;8.49;100.00;97206.41;4988588;28;20047;-41
2021/10/10 01:35:23;;;;;;;27.33;16.25;;;;;;;8.54;100.00;97201.66;4988070;28;20070;-44
2021/10/10 01:37:53;;;;;;;30.20;17.50;;;;;;;8.65;100.00;97202.66;4992772;28;20101;-43
2021/10/10 01:40:21;;;;;;;28.85;16.83;;;;;;;8.45;100.00;97198.88;4987265;28;20512;-43
2021/10/10 01:43:08;;;;;;;30.30;17.27;;;;;;;8.58;100.00;97193.56;4985650;28;20586;-50
2021/10/10 01:45:37;;;;;;;36.63;17.63;;;;;;;8.40;100.00;97193.13;4983613;28;20090;-45
2021/10/10 01:48:06;;;;;;;29.17;17.38;;;;;;;8.53;100.00;97193.88;4982522;28;20065;-46
2021/10/10 01:50:35;;;;;;;26.55;17.10;;;;;;;8.63;100.00;97189.59;4985566;28;20089;-42
2021/10/10 01:53:24;;;;;;;29.35;16.88;;;;;;;8.49;100.00;97198.53;4985838;28;20053;-44
2021/10/10 01:55:53;;;;;;;28.25;17.30;;;;;;;8.74;100.00;97192.28;4985744;28;20530;-45
2021/10/10 01:58:21;;;;;;;27.58;17.85;;;;;;;8.40;100.00;97191.34;4989142;28;20066;-47
2021/10/10 02:00:49;;;;;;;29.45;18.35;;;;;;;8.63;100.00;97192.25;4984160;28;20085;-43
2021/10/10 02:03:36;;;;;;;29.63;17.58;;;;;;;8.56;100.00;97186.59;4985757;28;20045;-42
2021/10/10 02:06:05;;;;;;;29.48;17.67;;;;;;;8.54;100.00;97183.25;4985892;28;20077;-41
2021/10/10 02:08:35;;;;;;;27.65;16.90;;;;;;;8.26;100.00;97183.59;4986140;28;20473;-47
2021/10/10 02:11:03;;;;;;;30.73;18.05;;;;;;;8.45;100.00;97181.31;4987085;28;20085;-44
2021/10/10 02:13:32;;;;;;;29.77;17.90;;;;;;;8.59;100.00;97188.16;4984209;28;20073;-42
2021/10/10 02:16:00;;;;;;;31.63;17.83;;;;;;;8.36;100.00;97176.69;4988038;28;20034;-48
2021/10/10 02:18:29;;;;;;;34.35;18.90;;;;;;;8.55;100.00;97181.47;4984469;28;20069;-44
2021/10/10 02:20:57;;;;;;;33.67;17.08;;;;;;;8.82;100.00;97177.72;4985543;28;20073;-41
2021/10/10 02:23:25;;;;;;;29.73;18.52;;;;;;;8.77;100.00;97181.56;4985188;28;20065;-43
2021/10/10 02:25:55;;;;;;;27.85;17.35;;;;;;;8.74;100.00;97183.53;4997344;28;20476;-46
2021/10/10 02:28:24;;;;;;;29.48;18.08;;;;;;;8.78;100.00;97180.59;4986647;28;20521;-46
2021/10/10 02:30:52;;;;;;;30.40;17.88;;;;;;;8.75;100.00;97183.44;4982172;28;20108;-48
2021/10/10 02:33:22;;;;;;;27.30;16.37;;;;;;;8.47;100.00;97181.22;4982844;28;20108;-47
2021/10/10 02:35:50;;;;;;;29.30;16.65;;;;;;;8.37;100.00;97180.19;4975527;28;20054;-45
2021/10/10 02:38:19;;;;;;;21.95;15.38;;;;;;;8.17;100.00;97184.25;4988335;28;20081;-42
2021/10/10 02:40:48;;;;;;;24.45;15.15;;;;;;;8.13;100.00;97185.44;4989070;28;20105;-48
2021/10/10 02:43:36;;;;;;;22.67;15.02;;;;;;;7.60;100.00;97176.06;4988046;28;20056;-47
2021/10/10 02:46:05;;;;;;;21.70;15.00;;;;;;;7.75;100.00;97179.38;4988900;28;20038;-49
2021/10/10 02:48:33;;;;;;;22.15;14.60;;;;;;;7.51;100.00;97175.84;4986757;28;20101;-45
2021/10/10 02:51:02;;;;;;;22.13;15.50;;;;;;;7.16;100.00;97175.66;4987070;28;20062;-47
2021/10/10 02:53:30;;;;;;;26.20;17.08;;;;;;;7.38;100.00;97175.88;4980651;28;20062;-53
2021/10/10 02:55:58;;;;;;;22.95;15.65;;;;;;;7.44;100.00;97174.63;4987531;28;20101;-45
2021/10/10 02:58:44;;;;;;;23.98;15.27;;;;;;;6.86;100.00;97172.44;4986633;28;20093;-47
2021/10/10 03:01:13;;;;;;;23.67;15.63;;;;;;;7.11;100.00;97173.38;4985531;28;20160;-43
2021/10/10 03:03:42;;;;;;;23.35;15.43;;;;;;;7.51;100.00;97168.00;4981602;28;20046;-43
2021/10/10 03:06:11;;;;;;;30.75;17.73;;;;;;;7.58;100.00;97170.06;4987816;28;20046;-46
2021/10/10 03:08:39;;;;;;;26.73;16.95;;;;;;;7.63;100.00;97172.34;4987516;28;20070;-48
2021/10/10 03:11:11;;;;;;;29.13;17.92;;;;;;;7.64;100.00;97175.81;4986808;28;20093;-43
2021/10/10 03:13:39;;;;;;;31.60;17.58;;;;;;;7.70;100.00;97172.75;4982297;28;20082;-47
2021/10/10 03:16:09;;;;;;;32.97;17.92;;;;;;;7.73;100.00;97172.53;4983060;28;20081;-44
2021/10/10 03:18:37;;;;;;;30.95;18.17;;;;;;;7.73;100.00;97162.88;4993782;28;20086;-46
2021/10/10 03:21:06;;;;;;;30.27;17.23;;;;;;;7.72;100.00;97166.47;4983304;28;20047;-45
2021/10/10 03:23:34;;;;;;;26.83;16.55;;;;;;;7.62;100.00;97162.81;4982774;28;20062;-49
2021/10/10 03:26:03;;;;;;;22.98;16.48;;;;;;;7.73;100.00;97160.25;4983537;28;20591;-45
2021/10/10 03:28:31;;;;;;;27.13;16.85;;;;;;;7.59;100.00;97161.22;4985758;28;20092;-47
2021/10/10 03:30:59;;;;;;;28.58;16.95;;;;;;;7.72;100.00;97161.22;4985734;28;20518;-45
2021/10/10 03:33:30;;;;;;;24.30;15.23;;;;;;;7.54;100.00;97165.97;4983946;28;20073;-46
2021/10/10 03:35:58;;;;;;;27.85;15.60;;;;;;;7.63;100.00;97163.63;4982673;28;20130;-45
2021/10/10 03:38:27;;;;;;;31.05;17.70;;;;;;;7.75;100.00;97158.38;4987235;28;20038;-47
2021/10/10 03:40:55;;;;;;;31.60;18.70;;;;;;;7.64;100.00;97145.19;4983463;28;20086;-43
2021/10/10 03:43:24;;;;;;;29.63;17.00;;;;;;;7.69;100.00;97156.16;4981831;28;20074;-47
2021/10/10 03:45:52;;;;;;;31.27;17.98;;;;;;;7.67;100.00;97150.19;4984943;28;20560;-46
2021/10/10 03:48:23;;;;;;;27.52;17.77;;;;;;;7.63;100.00;97153.13;4991162;28;20085;-44
2021/10/10 03:50:53;;;;;;;;;;;;;;;7.60;100.00;97154.19;4987972;28;20065;-44
2021/10/10 03:53:26;;;;;;;28.92;17.52;;;;;;;7.59;100.00;97147.28;4979118;28;19969;-48
2021/10/10 03:55:55;;;;;;;32.17;18.20;;;;;;;7.64;100.00;97147.81;4986623;28;20079;-48
2021/10/10 03:58:23;;;;;;;29.67;17.20;;;;;;;7.50;100.00;97150.53;4983354;28;20493;-49
2021/10/10 04:00:52;;;;;;;28.27;18.30;;;;;;;7.28;100.00;97149.44;4982303;28;20073;-42
2021/10/10 04:03:20;;;;;;;31.23;16.77;;;;;;;7.31;100.00;97148.38;4981058;28;20078;-49
2021/10/10 04:05:49;;;;;;;28.33;17.27;;;;;;;7.12;100.00;97138.31;4984980;28;20070;-43
2021/10/10 04:08:18;;;;;;;26.45;17.13;;;;;;;7.07;100.00;97136.03;4978497;28;20078;-44
2021/10/10 04:10:47;;;;;;;27.15;17.05;;;;;;;7.41;100.00;97138.94;4981333;28;20529;-42
2021/10/10 04:13:15;;;;;;;31.45;18.08;;;;;;;7.43;100.00;97133.56;4987265;28;20074;-45
2021/10/10 04:15:44;;;;;;;28.55;16.98;;;;;;;7.27;100.00;97142.53;4985445;28;20548;-44
2021/10/10 04:18:12;;;;;;;28.73;17.08;;;;;;;7.14;100.00;97131.19;4980519;28;20070;-44
2021/10/10 04:20:41;;;;;;;29.33;16.85;;;;;;;7.43;100.00;97138.81;4975349;28;20074;-44
2021/10/10 04:23:09;;;;;;;25.45;16.95;;;;;;;7.34;100.00;97138.50;4983726;28;20065;-42
2021/10/10 04:25:39;;;;;;;26.38;16.83;;;;;;;7.06;100.00;97134.38;4980009;28;20521;-43
2021/10/10 04:28:26;;;;;;;29.15;17.25;;;;;;;7.30;100.00;97142.31;4987992;28;20543;-47
2021/10/10 04:30:54;;;;;;;25.33;17.30;;;;;;;7.29;100.00;97137.97;4985979;28;20480;-46
2021/10/10 04:33:23;;;;;;;24.02;15.77;;;;;;;7.30;100.00;97142.31;4985771;28;20062;-49
2021/10/10 04:35:51;;;;;;;24.55;16.10;;;;;;;7.31;100.00;97138.72;4980416;28;20074;-41
2021/10/10 04:38:20;;;;;;;22.30;15.07;;;;;;;7.25;100.00;97140.94;4993853;28;20081;-42
2021/10/10 04:40:49;;;;;;;22.92;15.40;;;;;;;7.13;100.00;97132.16;4988212;28;20097;-43
2021/10/10 04:43:18;;;;;;;21.08;15.30;;;;;;;7.11;100.00;97139.28;4985259;28;20073;-42
2021/10/10 04:45:46;;;;;;;20.95;14.20;;;;;;;7.02;100.00;97142.53;4975966;28;20062;-42
2021/10/10 04:48:20;;;;;;;23.92;15.13;;;;;;;6.93;100.00;97141.38;4981346;28;20130;-45
2021/10/10 04:50:49;;;;;;;25.77;16.65;;;;;;;7.11;100.00;97149.78;4984662;28;20066;-42
2021/10/10 04:53:22;;;;;;;23.70;16.40;;;;;;;7.07;100.00;97145.69;4982630;28;20104;-43
2021/10/10 04:55:52;;;;;;;25.88;17.40;;;;;;;6.96;100.00;97150.84;4985056;28;20079;-43
2021/10/10 04:58:20;;;;;;;26.77;16.35;;;;;;;7.16;100.00;97147.69;4982507;28;20074;-49
2021/10/10 05:00:48;;;;;;;27.45;16.65;;;;;;;7.11;100.00;97144.53;4982965;28;20058;-45
2021/10/10 05:03:17;;;;;;;28.88;17.05;;;;;;;7.16;100.00;97146.81;4971209;28;20065;-43
2021/10/10 05:05:45;;;;;;;23.80;16.20;;;;;;;7.08;100.00;97148.19;4981048;28;20066;-42
2021/10/10 05:08:14;;;;;;;25.17;16.75;;;;;;;7.00;100.00;97154.94;4980950;28;20077;-46
2021/10/10 05:10:42;;;;;;;24.50;16.60;;;;;;;6.92;100.00;97154.59;4988955;28;20101;-47
2021/10/10 05:13:12;;;;;;;27.20;16.75;;;;;;;6.84;100.00;97155.13;4974923;28;20073;-50
2021/10/10 05:15:40;;;;;;;28.65;16.73;;;;;;;6.80;100.00;97162.34;4985294;28;20074;-46
2021/10/10 05:18:09;;;;;;;27.27;17.08;;;;;;;6.89;100.00;97161.75;4986375;28;20085;-47
2021/10/10 05:20:37;;;;;;;28.23;16.17;;;;;;;6.96;100.00;97158.72;4985559;28;20065;-42
2021/10/10 05:23:07;;;;;;;26.58;16.30;;;;;;;6.98;100.00;97162.03;4979636;28;20540;-43
2021/10/10 05:25:36;;;;;;;27.05;16.77;;;;;;;6.90;100.00;97166.03;4981712;28;20078;-43
2021/10/10 05:28:05;;;;;;;24.45;16.40;;;;;;;6.78;100.00;97161.63;4982550;28;20081;-42
2021/10/10 05:30:35;;;;;;;26.13;16.13;;;;;;;7.05;100.00;97166.75;4984253;28;20177;-45
2021/10/10 05:33:03;;;;;;;23.70;15.20;;;;;;;6.81;100.00;97171.91;4982270;28;20089;-45
2021/10/10 05:35:34;;;;;;;26.42;16.27;;;;;;;6.52;100.00;97178.25;4976244;28;20496;-46
2021/10/10 05:38:02;;;;;;;23.55;14.90;;;;;;;6.52;100.00;97176.47;4980497;28;20085;-50
2021/10/10 05:40:32;;;;;;;20.70;15.05;;;;;;;6.59;100.00;97179.53;4982330;28;20555;-41
2021/10/10 05:43:01;;;;;;;24.55;16.27;;;;;;;6.48;100.00;97182.03;4981954;28;20077;-42
2021/10/10 05:45:29;;;;;;;23.38;15.32;;;;;;;6.37;100.00;97174.88;4989519;28;20070;-45
2021/10/10 05:47:59;;;;;;;24.38;15.55;;;;;;;6.57;100.00;97181.41;4979449;28;20085;-41
2021/10/10 05:50:27;;;;;;;25.73;15.53;;;;;;;6.62;100.00;97177.53;4984315;28;20078;-46
2021/10/10 05:52:56;;;;;;;23.35;15.32;;;;;;;6.49;100.00;97178.47;4981580;28;20515;-42
2021/10/10 05:55:25;;;;;;;23.27;15.90;;;;;;;6.59;100.00;97182.97;4981641;28;20069;-46
2021/10/10 05:57:53;;;;;;;27.30;15.40;;;;;;;6.96;100.00;97177.06;4978492;28;20081;-42
2021/10/10 06:00:22;;;;;;;21.70;15.27;;;;;;;6.98;100.00;97170.75;4982659;28;20066;-42
2021/10/10 06:02:50;;;;;;;27.10;15.93;;;;;;;7.20;100.00;97169.28;4983745;28;20062;-48
2021/10/10 06:05:20;;;;;;;32.75;18.13;;;;;;;7.17;100.00;97177.38;4978099;28;20101;-42
2021/10/10 06:07:48;;;;;;;25.88;16.98;;;;;;;7.42;100.00;97168.63;4977935;28;20089;-61
2021/10/10 06:10:17;;;;;;;28.15;16.48;;;;;;;7.70;100.00;97173.59;4983904;28;20062;-59
2021/10/10 06:12:45;;;;;;;29.05;18.05;;;;;;;7.64;100.00;97173.19;4983767;28;20549;-60
2021/10/10 06:15:14;;;;;;;35.10;20.80;;;;;;;7.52;100.00;97174.91;4984659;28;20484;-59
2021/10/10 06:17:43;;;;;;;31.95;18.40;;;;;;;7.87;100.00;97180.25;4985216;28;20120;-61
2021/10/10 06:20:11;;;;;;;33.15;19.98;;;;;;;7.93;100.00;97185.09;4984598;28;20159;-60
2021/10/10 06:22:41;;;;;;;32.35;19.92;;;;;;;7.93;100.00;97177.22;4986477;28;20516;-63
2021/10/10 06:25:10;;;;;;;29.30;19.42;;;;;;;8.21;100.00;97180.47;4983126;28;20066;-60
2021/10/10 06:27:38;;;;;;;33.00;20.40;;;;;;;8.18;100.00;97180.69;4985218;28;20069;-60
2021/10/10 06:30:07;;;;;;;33.45;19.67;;;;;;;8.28;100.00;97176.44;4976994;28;20484;-57
2021/10/10 06:32:38;;;;;;;35.47;20.15;;;;;;;8.67;100.00;97185.81;4978328;28;20066;-60
2021/10/10 06:35:07;;;;;;;;;;;;;;;8.73;100.00;97185.34;4985981;28;20085;-59
2021/10/10 06:37:35;;;;;;;30.40;18.52;;;;;;;8.36;100.00;97187.19;4984800;28;19956;-60
2021/10/10 06:40:07;;;;;;;31.92;18.90;;;;;;;8.84;100.00;97188.94;4981158;28;20429;-60
2021/10/10 06:42:36;;;;;;;27.27;17.63;;;;;;;8.82;100.00;97183.00;4977366;28;20073;-58
2021/10/10 06:45:06;;;;;;;29.10;19.38;;;;;;;8.94;100.00;97179.41;4982018;28;20078;-59
2021/10/10 06:47:36;;;;;;;30.63;19.35;;;;;;;9.08;100.00;97178.34;4981009;28;20469;-58
2021/10/10 06:50:05;;;;;;;27.10;18.88;;;;;;;9.06;100.00;97177.66;4979242;28;20093;-58
2021/10/10 06:52:52;;;;;;;29.35;18.85;;;;;;;9.41;100.00;97177.56;4983632;28;20068;-54
2021/10/10 06:55:22;;;;;;;32.03;19.42;;;;;;;9.73;100.00;97175.00;4980232;28;20086;-59
2021/10/10 06:57:50;;;;;;;27.63;17.33;;;;;;;9.47;100.00;97183.19;4980089;28;20069;-60
2021/10/10 07:00:19;;;;;;;27.48;17.23;;;;;;;9.69;100.00;97182.31;4973225;28;20105;-59
2021/10/10 07:02:47;;;;;;;25.98;15.57;;;;;;;9.97;100.00;97174.84;4980548;28;20078;-59
2021/10/10 07:05:17;;;;;;;26.15;17.42;;;;;;;9.47;100.00;97188.44;4972520;28;20082;-58
2021/10/10 07:07:46;;;;;;;28.45;17.48;;;;;;;9.30;100.00;97188.09;4982457;28;20496;-56
2021/10/10 07:10:14;;;;;;;27.67;16.95;;;;;;;9.45;100.00;97185.09;4977544;28;20093;-58
2021/10/10 07:12:44;;;;;;;27.17;16.35;;;;;;;9.22;100.00;97186.88;4984270;28;20069;-60
2021/10/10 07:15:14;;;;;;;26.10;17.08;;;;;;;9.75;100.00;97188.91;4983354;28;20536;-57
2021/10/10 07:17:42;;;;;;;25.52;16.77;;;;;;;9.94;100.00;97188.28;4982821;28;20074;-58
2021/10/10 07:20:13;;;;;;;27.70;15.30;;;;;;;9.57;100.00;97185.09;4979451;28;20082;-59
2021/10/10 07:22:46;;;;;;;24.88;15.10;;;;;;;9.31;100.00;97189.75;4985385;28;20497;-58
2021/10/10 07:25:15;;;;;;;22.10;14.73;;;;;;;9.72;100.00;97189.16;4983486;28;20074;-58
2021/10/10 07:27:47;;;;;;;27.02;15.88;;;;;;;10.51;100.00;97181.91;4982784;28;20214;-60
2021/10/10 07:30:16;;;;;;;25.88;14.38;;;;;;;10.45;100.00;97192.94;4981618;28;20073;-58
2021/10/10 07:32:44;;;;;;;22.67;14.02;;;;;;;9.64;100.00;97186.28;4977803;28;20104;-60
2021/10/10 07:35:12;;;;;;;21.52;14.50;;;;;;;9.74;100.00;97185.44;4979411;28;20101;-57
2021/10/10 07:37:41;;;;;;;22.85;12.52;;;;;;;9.62;100.00;97188.19;4978491;28;20093;-59
2021/10/10 07:40:10;;;;;;;23.05;13.10;;;;;;;9.97;100.00;97188.84;4978643;28;20473;-59
2021/10/10 07:42:39;;;;;;;21.95;13.38;;;;;;;9.56;100.00;97192.13;4981727;28;20066;-57
2021/10/10 07:45:27;;;;;;;23.10;13.82;;;;;;;10.30;100.00;97188.94;4978616;28;20394;-58
2021/10/10 07:48:01;;;;;;;21.90;14.57;;;;;;;10.92;100.00;97188.19;4981123;28;20078;-58
2021/10/10 07:50:57;;;;;;;18.90;12.82;;;;;;;10.50;100.00;97188.16;4982812;28;20433;-59
2021/10/10 07:53:25;;;;;;;20.50;13.73;;;;;;;10.07;100.00;97198.66;4981450;28;20081;-58
2021/10/10 07:55:54;;;;;;;22.75;13.68;;;;;;;10.45;100.00;97193.78;4977484;28;20197;-58
2021/10/10 07:58:41;;;;;;;21.13;13.57;;;;;;;9.92;100.00;97201.56;4984243;28;20451;-60
2021/10/10 08:01:11;;;;;;;19.27;12.85;;;;;;;10.65;100.00;97201.88;4978014;28;20132;-57
2021/10/10 08:03:39;;;;;;;20.58;13.70;;;;;;;11.14;100.00;97195.94;4978839;28;20066;-58
2021/10/10 08:06:10;;;;;;;22.88;13.40;;;;;;;11.05;98.67;97203.84;4984115;28;20500;-57
2021/10/10 08:08:38;;;;;;;20.25;13.60;;;;;;;9.96;100.00;97205.63;4984412;28;20067;-58
2021/10/10 08:11:07;;;;;;;23.83;12.50;;;;;;;10.35;100.00;97205.22;4982618;28;20574;-59
2021/10/10 08:13:35;;;;;;;24.17;13.70;;;;;;;10.82;100.00;97193.38;4981884;28;20090;-61
2021/10/10 08:16:04;;;;;;;20.20;12.77;;;;;;;11.21;98.07;97203.34;4982073;28;20074;-60
2021/10/10 08:18:34;;;;;;;20.35;13.73;;;;;;;11.15;100.00;97205.56;4980652;28;20070;-60
2021/10/10 08:21:03;;;;;;;17.63;13.27;;;;;;;12.03;87.13;97200.69;4983546;28;20085;-60
2021/10/10 08:23:32;;;;;;;18.80;13.02;;;;;;;12.09;85.77;97208.91;4980415;28;20066;-59
2021/10/10 08:26:00;;;;;;;19.25;13.57;;;;;;;12.46;78.37;97199.50;4984053;28;20541;-61
2021/10/10 08:28:28;;;;;;;22.63;13.35;;;;;;;11.98;85.71;97206.38;4977073;28;20272;-60
2021/10/10 08:30:57;;;;;;;24.05;13.35;;;;;;;12.04;87.13;97210.28;4978322;28;20075;-60
2021/10/10 08:33:28;;;;;;;20.20;12.93;;;;;;;11.68;88.50;97206.38;4978868;28;20073;-58
2021/10/10 08:35:58;;;;;;;21.15;12.80;;;;;;;11.88;85.35;97203.69;4980421;28;20077;-59
2021/10/10 08:38:26;;;;;;;20.65;12.70;;;;;;;12.06;85.46;97216.28;4980240;28;20062;-60
2021/10/10 08:40:56;;;;;;;20.88;12.75;;;;;;;12.21;84.71;97214.06;4982320;28;20097;-61
2021/10/10 08:43:26;;;;;;;25.90;12.73;;;;;;;11.84;88.35;97219.97;4973628;28;20058;-58
2021/10/10 08:45:55;;;;;;;21.52;13.52;;;;;;;12.39;83.98;97222.16;4980679;28;20078;-60
2021/10/10 08:48:23;;;;;;;22.02;14.45;;;;;;;12.26;80.98;97215.34;4977652;28;20069;-60
2021/10/10 08:51:12;;;;;;;20.38;12.10;;;;;;;11.83;87.21;97213.78;4973703;28;20701;-61
2021/10/10 08:54:00;;;;;;;21.50;12.70;;;;;;;12.31;85.00;97214.91;4982717;28;20070;-61
2021/10/10 08:56:28;;;;;;;19.52;13.38;;;;;;;12.57;83.95;97218.72;4979341;28;20078;-63
2021/10/10 08:59:02;;;;;;;24.10;14.32;;;;;;;12.05;85.27;97217.25;4982535;28;20086;-60
2021/10/10 09:01:36;;;;;;;19.13;13.65;;;;;;;12.32;78.98;97212.16;4980816;28;20336;-61
2021/10/10 09:04:05;;;;;;;21.42;12.88;;;;;;;12.35;83.10;97211.03;4980076;28;20081;-59
2021/10/10 09:06:40;;;;;;;19.80;13.82;;;;;;;12.29;85.55;97220.38;4982183;28;20108;-62
2021/10/10 09:09:27;;;;;;;21.80;12.70;;;;;;;13.31;75.26;97206.69;4983913;28;20069;-61
2021/10/10 09:12:00;;;;;;;22.00;12.20;;;;;;;12.95;75.15;97209.09;4983534;28;20069;-62
2021/10/10 09:14:29;;;;;;;21.77;12.70;;;;;;;12.76;75.31;97204.63;4977490;28;20529;-62
2021/10/10 09:17:14;;;;;;;22.95;14.38;;;;;;;12.63;75.63;97205.91;4985942;28;20090;-61
2021/10/10 09:19:49;;;;;;;23.70;13.32;;;;;;;12.90;73.68;97200.72;4982419;28;20514;-62
2021/10/10 09:22:20;;;;;;;23.80;13.85;;;;;;;12.78;79.88;97201.88;4983551;28;20077;-62
2021/10/10 09:24:50;;;;;;;21.70;13.40;;;;;;;13.16;76.33;97195.69;4984566;28;20070;-60
2021/10/10 09:27:19;;;;;;;20.50;13.82;;;;;;;12.97;73.51;97204.50;4982844;28;20528;-63
2021/10/10 09:29:50;;;;;;;17.95;11.95;;;;;;;13.03;74.36;97201.28;4975525;28;20116;-62
2021/10/10 09:32:21;;;;;;;16.42;11.10;;;;;;;12.89;74.68;97196.44;4981700;28;20043;-60
2021/10/10 09:34:51;;;;;;;19.33;13.10;;;;;;;13.50;73.04;97195.22;4984197;28;20082;-61
2021/10/10 09:37:23;;;;;;;19.77;12.55;;;;;;;13.58;71.81;97194.50;4986068;28;20066;-61
2021/10/10 09:39:58;;;;;;;22.38;13.90;;;;;;;12.81;76.10;97204.25;4982694;28;20078;-60
2021/10/10 09:42:36;;;;;;;23.45;12.48;;;;;;;13.21;74.63;97187.31;4985640;28;20065;-61
2021/10/10 09:45:17;;;;;;;22.63;12.73;;;;;;;13.22;75.39;97186.34;4986289;28;20078;-62
2021/10/10 09:47:51;;;;;;;16.33;12.07;;;;;;;13.32;72.55;97186.31;4986047;28;20259;-61
2021/10/10 09:50:20;;;;;;;17.67;12.38;;;;;;;13.52;73.08;97186.16;4982440;28;20459;-60
2021/10/10 09:53:01;;;;;;;19.70;12.80;;;;;;;13.78;69.56;97188.13;4990263;28;20533;-61
2021/10/10 09:55:30;;;;;;;19.33;12.48;;;;;;;13.15;72.51;97186.09;4981796;28;20379;-61
2021/10/10 09:57:58;;;;;;;18.75;12.77;;;;;;;13.51;68.85;97176.50;4982604;28;20583;-58
2021/10/10 10:00:29;;;;;;;19.00;12.98;;;;;;;13.97;68.75;97182.75;4982813;28;20461;-61
2021/10/10 10:03:06;;;;;;;19.02;12.32;;;;;;;13.99;66.78;97188.72;4989014;28;20478;-61
2021/10/10 10:05:34;;;;;;;19.23;12.57;;;;;;;13.64;73.59;97189.44;4979915;28;20069;-63
2021/10/10 10:08:05;;;;;;;16.55;12.27;;;;;;;14.17;66.27;97185.25;4982917;28;20472;-61
2021/10/10 10:10:35;;;;;;;20.23;12.07;;;;;;;14.11;62.89;97189.38;4985376;28;20058;-61
2021/10/10 10:13:22;;;;;;;20.23;11.35;;;;;;;13.03;72.66;97192.50;4987871;28;20045;-62
2021/10/10 10:15:50;;;;;;;22.17;12.98;;;;;;;14.34;64.97;97186.28;4979540;28;20549;-63
2021/10/10 10:18:19;;;;;;;18.67;11.55;;;;;;;13.69;64.31;97181.03;4980995;28;20059;-62
2021/10/10 10:20:49;;;;;;;18.50;12.00;;;;;;;14.04;65.98;97190.06;4987566;28;20069;-59
2021/10/10 10:23:18;;;;;;;19.45;12.25;;;;;;;13.90;66.70;97181.66;4986204;28;20090;-61
2021/10/10 10:25:48;;;;;;;17.05;10.85;;;;;;;14.32;65.81;97191.75;4985420;28;20085;-61
2021/10/10 10:28:16;;;;;;;19.17;11.75;;;;;;;13.68;65.48;97187.34;4989089;28;20073;-61
2021/10/10 10:30:46;;;;;;;19.20;11.68;;;;;;;14.20;64.04;97184.97;4986452;28;20073;-61
2021/10/10 10:33:15;;;;;;;19.98;11.32;;;;;;;14.12;65.43;97183.06;4983267;28;20070;-61
2021/10/10 10:35:45;;;;;;;21.48;12.10;;;;;;;14.96;61.14;97172.09;4987679;28;20089;-60
2021/10/10 10:38:16;;;;;;;16.52;11.00;;;;;;;13.78;66.31;97182.81;4985740;28;20090;-62
2021/10/10 10:40:46;;;;;;;20.52;11.20;;;;;;;14.22;63.03;97183.84;4986542;28;20070;-61
2021/10/10 10:43:14;;;;;;;17.77;10.77;;;;;;;14.35;62.69;97180.84;4986877;28;20070;-62
2021/10/10 10:45:45;;;;;;;17.33;12.15;;;;;;;14.42;62.29;97178.41;4982223;28;20486;-62
2021/10/10 10:48:36;;;;;;;17.30;11.03;;;;;;;14.66;61.19;97180.50;4988339;28;20551;-62
2021/10/10 10:51:24;;;;;;;17.63;11.15;;;;;;;14.45;62.27;97178.09;4980943;28;20456;-61
2021/10/10 10:53:52;;;;;;;17.38;10.60;;;;;;;14.40;63.18;97175.88;4981815;28;20035;-61
2021/10/10 10:56:30;;;;;;;15.70;10.60;;;;;;;14.53;61.34;97175.56;4986242;28;20078;-60
2021/10/10 10:58:59;;;;;;;15.18;9.75;;;;;;;14.56;58.46;97177.91;4988789;28;20093;-62
2021/10/10 11:01:28;;;;;;;21.45;10.32;;;;;;;14.72;59.47;97171.91;4981006;28;20353;-61
2021/10/10 11:04:24;;;;;;;19.05;11.65;;;;;;;14.49;59.85;97177.66;4991904;28;20074;-61
2021/10/10 11:06:55;;;;;;;19.35;10.90;;;;;;;14.48;57.94;97181.25;4986228;28;20466;-60
2021/10/10 11:09:25;;;;;;;16.10;10.40;;;;;;;14.02;60.59;97184.94;4986973;28;20535;-60
2021/10/10 11:12:00;;;;;;;18.15;10.15;;;;;;;14.08;60.42;97178.22;4983737;28;20457;-61
2021/10/10 11:14:31;;;;;;;15.25;10.50;;;;;;;14.09;58.47;97179.88;4988603;28;20071;-62
2021/10/10 11:17:07;;;;;;;21.08;12.63;;;;;;;14.58;58.86;97170.59;4989087;28;20100;-61
2021/10/10 11:19:36;;;;;;;16.52;11.35;;;;;;;15.07;56.90;97164.84;4978806;28;21799;-62
2021/10/10 11:22:04;;;;;;;16.73;10.98;;;;;;;15.30;56.07;97171.31;4975806;28;20070;-60
2021/10/10 11:24:32;;;;;;;15.50;9.27;;;;;;;14.26;57.64;97165.81;4985045;28;20081;-62
2021/10/10 11:27:11;;;;;;;18.50;10.65;;;;;;;14.52;56.76;97167.72;4982409;28;20073;-62
2021/10/10 11:29:40;;;;;;;13.30;9.68;;;;;;;15.13;55.39;97150.97;4984228;28;20089;-62
2021/10/10 11:32:09;;;;;;;18.27;10.00;;;;;;;15.64;50.49;97152.75;4980006;28;20081;-62